sensor_id;sensor_type;location;lat;lon;timestamp;temperature;humidity
26821;DHT22;37186;51.394;5.454;2022-11-02T00:00:42;15.70;78.30
26821;DHT22;37186;51.394;5.454;2022-11-02T00:03:43;15.70;78.20
26821;DHT22;37186;51.394;5.454;2022-11-02T00:06:43;15.70;78.20
26821;DHT22;37186;51.394;5.454;2022-11-02T00:09:44;15.70;78.20
26821;DHT22;37186;51.394;5.454;2022-11-02T00:12:44;15.70;78.00
26821;DHT22;37186;51.394;5.454;2022-11-02T00:15:45;15.70;78.20
26821;DHT22;37186;51.394;5.454;2022-11-02T00:18:48;15.70;78.20
26821;DHT22;37186;51.394;5.454;2022-11-02T00:21:50;15.70;78.20
26821;DHT22;37186;51.394;5.454;2022-11-02T00:24:51;15.70;78.10
26821;DHT22;37186;51.394;5.454;2022-11-02T00:27:52;15.70;78.00
26821;DHT22;37186;51.394;5.454;2022-11-02T00:30:53;15.70;78.30
26821;DHT22;37186;51.394;5.454;2022-11-02T00:33:54;15.70;78.10
26821;DHT22;37186;51.394;5.454;2022-11-02T00:36:54;15.70;78.10
26821;DHT22;37186;51.394;5.454;2022-11-02T00:39:55;15.70;78.20
26821;DHT22;37186;51.394;5.454;2022-11-02T00:42:55;15.70;78.30
26821;DHT22;37186;51.394;5.454;2022-11-02T00:45:56;15.70;78.30
26821;DHT22;37186;51.394;5.454;2022-11-02T00:48:56;15.70;78.20
26821;DHT22;37186;51.394;5.454;2022-11-02T00:51:57;15.70;78.10
26821;DHT22;37186;51.394;5.454;2022-11-02T00:54:57;15.70;78.10
26821;DHT22;37186;51.394;5.454;2022-11-02T00:57:58;15.70;78.10
26821;DHT22;37186;51.394;5.454;2022-11-02T01:01:03;15.70;78.30
26821;DHT22;37186;51.394;5.454;2022-11-02T01:04:04;15.70;78.20
26821;DHT22;37186;51.394;5.454;2022-11-02T01:07:05;15.70;77.90
26821;DHT22;37186;51.394;5.454;2022-11-02T01:10:07;15.70;78.10
26821;DHT22;37186;51.394;5.454;2022-11-02T01:13:07;15.70;78.00
26821;DHT22;37186;51.394;5.454;2022-11-02T01:16:09;15.70;77.80
26821;DHT22;37186;51.394;5.454;2022-11-02T01:19:10;15.70;77.90
26821;DHT22;37186;51.394;5.454;2022-11-02T01:22:10;15.60;77.60
26821;DHT22;37186;51.394;5.454;2022-11-02T01:25:11;15.70;77.60
26821;DHT22;37186;51.394;5.454;2022-11-02T01:28:12;15.60;77.80
26821;DHT22;37186;51.394;5.454;2022-11-02T01:31:12;15.60;77.30
26821;DHT22;37186;51.394;5.454;2022-11-02T01:34:13;15.60;77.40
26821;DHT22;37186;51.394;5.454;2022-11-02T01:37:14;15.60;77.10
26821;DHT22;37186;51.394;5.454;2022-11-02T01:40:14;15.60;77.50
26821;DHT22;37186;51.394;5.454;2022-11-02T01:43:29;15.50;77.30
26821;DHT22;37186;51.394;5.454;2022-11-02T01:46:36;15.50;77.40
26821;DHT22;37186;51.394;5.454;2022-11-02T01:49:41;15.50;77.40
26821;DHT22;37186;51.394;5.454;2022-11-02T01:52:43;15.50;77.50
26821;DHT22;37186;51.394;5.454;2022-11-02T01:55:44;15.50;77.40
26821;DHT22;37186;51.394;5.454;2022-11-02T01:58:46;15.40;77.20
26821;DHT22;37186;51.394;5.454;2022-11-02T02:01:48;15.50;77.10
26821;DHT22;37186;51.394;5.454;2022-11-02T02:04:53;15.40;77.20
26821;DHT22;37186;51.394;5.454;2022-11-02T02:07:55;15.40;77.30
26821;DHT22;37186;51.394;5.454;2022-11-02T02:10:57;15.40;77.30
26821;DHT22;37186;51.394;5.454;2022-11-02T02:14:15;15.40;77.40
26821;DHT22;37186;51.394;5.454;2022-11-02T02:17:36;15.30;77.30
26821;DHT22;37186;51.394;5.454;2022-11-02T02:24:05;15.30;77.40
26821;DHT22;37186;51.394;5.454;2022-11-02T02:27:17;15.30;77.40
26821;DHT22;37186;51.394;5.454;2022-11-02T02:30:19;15.30;77.30
26821;DHT22;37186;51.394;5.454;2022-11-02T02:33:45;15.30;77.20
26821;DHT22;37186;51.394;5.454;2022-11-02T02:36:59;15.30;77.30
26821;DHT22;37186;51.394;5.454;2022-11-02T02:40:10;15.20;76.80
26821;DHT22;37186;51.394;5.454;2022-11-02T02:43:18;15.20;77.20
26821;DHT22;37186;51.394;5.454;2022-11-02T02:49:37;15.20;77.20
26821;DHT22;37186;51.394;5.454;2022-11-02T02:52:40;15.20;77.20
26821;DHT22;37186;51.394;5.454;2022-11-02T02:55:44;15.10;77.30
26821;DHT22;37186;51.394;5.454;2022-11-02T02:59:04;15.10;78.10
26821;DHT22;37186;51.394;5.454;2022-11-02T03:02:18;15.10;77.30
26821;DHT22;37186;51.394;5.454;2022-11-02T03:05:34;15.10;77.10
26821;DHT22;37186;51.394;5.454;2022-11-02T03:08:40;15.10;77.00
26821;DHT22;37186;51.394;5.454;2022-11-02T03:12:16;15.10;77.10
26821;DHT22;37186;51.394;5.454;2022-11-02T03:15:24;15.10;77.20
26821;DHT22;37186;51.394;5.454;2022-11-02T03:18:34;15.00;77.20
26821;DHT22;37186;51.394;5.454;2022-11-02T03:21:43;15.00;77.00
26821;DHT22;37186;51.394;5.454;2022-11-02T03:24:51;15.00;77.00
26821;DHT22;37186;51.394;5.454;2022-11-02T03:34:48;15.00;76.60
26821;DHT22;37186;51.394;5.454;2022-11-02T03:38:00;15.00;77.00
26821;DHT22;37186;51.394;5.454;2022-11-02T03:41:02;14.90;76.80
26821;DHT22;37186;51.394;5.454;2022-11-02T03:44:11;14.90;76.50
26821;DHT22;37186;51.394;5.454;2022-11-02T03:47:15;14.90;76.70
26821;DHT22;37186;51.394;5.454;2022-11-02T03:50:20;14.90;76.70
26821;DHT22;37186;51.394;5.454;2022-11-02T03:53:30;14.90;76.70
26821;DHT22;37186;51.394;5.454;2022-11-02T03:56:37;14.90;76.90
26821;DHT22;37186;51.394;5.454;2022-11-02T03:59:38;14.90;76.90
26821;DHT22;37186;51.394;5.454;2022-11-02T04:02:41;14.90;76.90
26821;DHT22;37186;51.394;5.454;2022-11-02T04:05:44;14.90;77.00
26821;DHT22;37186;51.394;5.454;2022-11-02T04:08:46;14.90;77.00
26821;DHT22;37186;51.394;5.454;2022-11-02T04:11:47;14.90;77.10
26821;DHT22;37186;51.394;5.454;2022-11-02T04:15:06;14.90;77.10
26821;DHT22;37186;51.394;5.454;2022-11-02T04:18:07;14.90;77.10
26821;DHT22;37186;51.394;5.454;2022-11-02T04:21:27;14.80;77.00
26821;DHT22;37186;51.394;5.454;2022-11-02T04:24:27;14.90;77.10
26821;DHT22;37186;51.394;5.454;2022-11-02T04:27:51;14.90;77.20
26821;DHT22;37186;51.394;5.454;2022-11-02T04:30:51;14.80;77.00
26821;DHT22;37186;51.394;5.454;2022-11-02T04:33:52;14.80;77.20
26821;DHT22;37186;51.394;5.454;2022-11-02T04:36:52;14.80;77.20
26821;DHT22;37186;51.394;5.454;2022-11-02T04:39:53;14.80;77.20
26821;DHT22;37186;51.394;5.454;2022-11-02T04:42:53;14.80;77.10
26821;DHT22;37186;51.394;5.454;2022-11-02T04:45:57;14.80;77.20
26821;DHT22;37186;51.394;5.454;2022-11-02T04:48:57;14.80;77.10
26821;DHT22;37186;51.394;5.454;2022-11-02T04:51:58;14.80;77.10
26821;DHT22;37186;51.394;5.454;2022-11-02T04:54:58;14.70;76.90
26821;DHT22;37186;51.394;5.454;2022-11-02T04:57:59;14.70;77.00
26821;DHT22;37186;51.394;5.454;2022-11-02T05:01:27;14.70;77.10
26821;DHT22;37186;51.394;5.454;2022-11-02T05:04:28;14.70;76.70
26821;DHT22;37186;51.394;5.454;2022-11-02T05:07:28;14.70;76.80
26821;DHT22;37186;51.394;5.454;2022-11-02T05:10:29;14.70;76.70
26821;DHT22;37186;51.394;5.454;2022-11-02T05:13:30;14.70;76.90
26821;DHT22;37186;51.394;5.454;2022-11-02T05:16:30;14.70;76.70
26821;DHT22;37186;51.394;5.454;2022-11-02T05:19:31;14.60;76.90
26821;DHT22;37186;51.394;5.454;2022-11-02T05:22:31;14.60;76.90
26821;DHT22;37186;51.394;5.454;2022-11-02T05:25:32;14.60;76.70
26821;DHT22;37186;51.394;5.454;2022-11-02T05:28:33;14.60;76.60
26821;DHT22;37186;51.394;5.454;2022-11-02T05:31:33;14.60;76.60
26821;DHT22;37186;51.394;5.454;2022-11-02T05:34:34;14.60;76.30
26821;DHT22;37186;51.394;5.454;2022-11-02T05:37:34;14.60;76.70
26821;DHT22;37186;51.394;5.454;2022-11-02T05:40:35;14.60;76.60
26821;DHT22;37186;51.394;5.454;2022-11-02T05:43:40;14.60;76.50
26821;DHT22;37186;51.394;5.454;2022-11-02T05:46:42;14.60;76.70
26821;DHT22;37186;51.394;5.454;2022-11-02T05:49:42;14.60;76.70
26821;DHT22;37186;51.394;5.454;2022-11-02T05:52:43;14.60;76.70
26821;DHT22;37186;51.394;5.454;2022-11-02T05:55:43;14.60;76.70
26821;DHT22;37186;51.394;5.454;2022-11-02T05:58:44;14.60;76.60
26821;DHT22;37186;51.394;5.454;2022-11-02T06:01:44;14.60;76.60
26821;DHT22;37186;51.394;5.454;2022-11-02T06:04:45;14.50;76.50
26821;DHT22;37186;51.394;5.454;2022-11-02T06:07:45;14.50;76.40
26821;DHT22;37186;51.394;5.454;2022-11-02T06:10:46;14.50;76.40
26821;DHT22;37186;51.394;5.454;2022-11-02T06:13:49;14.50;76.40
26821;DHT22;37186;51.394;5.454;2022-11-02T06:16:50;14.50;76.20
26821;DHT22;37186;51.394;5.454;2022-11-02T06:19:50;14.40;76.40
26821;DHT22;37186;51.394;5.454;2022-11-02T06:22:51;14.40;76.50
26821;DHT22;37186;51.394;5.454;2022-11-02T06:25:52;14.40;76.50
26821;DHT22;37186;51.394;5.454;2022-11-02T06:28:53;14.40;76.50
26821;DHT22;37186;51.394;5.454;2022-11-02T06:31:53;14.40;76.70
26821;DHT22;37186;51.394;5.454;2022-11-02T06:34:54;14.40;76.70
26821;DHT22;37186;51.394;5.454;2022-11-02T06:37:54;14.30;76.70
26821;DHT22;37186;51.394;5.454;2022-11-02T06:40:56;14.40;76.50
26821;DHT22;37186;51.394;5.454;2022-11-02T06:43:56;14.30;76.70
26821;DHT22;37186;51.394;5.454;2022-11-02T06:46:57;14.30;76.60
26821;DHT22;37186;51.394;5.454;2022-11-02T06:49:58;14.30;76.50
26821;DHT22;37186;51.394;5.454;2022-11-02T06:52:58;14.20;76.50
26821;DHT22;37186;51.394;5.454;2022-11-02T06:55:59;14.20;76.60
26821;DHT22;37186;51.394;5.454;2022-11-02T06:59:00;14.20;76.60
26821;DHT22;37186;51.394;5.454;2022-11-02T07:02:00;14.20;76.60
26821;DHT22;37186;51.394;5.454;2022-11-02T07:05:01;14.20;76.40
26821;DHT22;37186;51.394;5.454;2022-11-02T07:08:02;14.20;76.60
26821;DHT22;37186;51.394;5.454;2022-11-02T07:11:03;14.20;76.70
26821;DHT22;37186;51.394;5.454;2022-11-02T07:14:04;14.20;76.80
26821;DHT22;37186;51.394;5.454;2022-11-02T07:17:04;14.10;76.70
26821;DHT22;37186;51.394;5.454;2022-11-02T07:20:06;14.10;76.80
26821;DHT22;37186;51.394;5.454;2022-11-02T07:23:06;14.10;76.70
26821;DHT22;37186;51.394;5.454;2022-11-02T07:26:08;14.10;76.70
26821;DHT22;37186;51.394;5.454;2022-11-02T07:29:08;14.10;76.70
26821;DHT22;37186;51.394;5.454;2022-11-02T07:32:09;14.10;76.80
26821;DHT22;37186;51.394;5.454;2022-11-02T07:35:11;14.10;76.70
26821;DHT22;37186;51.394;5.454;2022-11-02T07:38:11;14.10;76.80
26821;DHT22;37186;51.394;5.454;2022-11-02T07:41:12;14.10;76.90
26821;DHT22;37186;51.394;5.454;2022-11-02T07:44:13;14.10;76.90
26821;DHT22;37186;51.394;5.454;2022-11-02T07:47:13;14.10;76.90
26821;DHT22;37186;51.394;5.454;2022-11-02T07:50:16;14.10;76.90
26821;DHT22;37186;51.394;5.454;2022-11-02T07:53:17;14.10;76.90
26821;DHT22;37186;51.394;5.454;2022-11-02T07:56:17;14.10;77.10
26821;DHT22;37186;51.394;5.454;2022-11-02T07:59:18;14.10;77.10
26821;DHT22;37186;51.394;5.454;2022-11-02T08:02:18;14.10;77.10
26821;DHT22;37186;51.394;5.454;2022-11-02T08:05:19;14.10;77.00
26821;DHT22;37186;51.394;5.454;2022-11-02T08:08:23;14.10;77.10
26821;DHT22;37186;51.394;5.454;2022-11-02T08:11:24;14.10;77.00
26821;DHT22;37186;51.394;5.454;2022-11-02T08:14:25;14.10;77.00
26821;DHT22;37186;51.394;5.454;2022-11-02T08:17:25;14.10;77.10
26821;DHT22;37186;51.394;5.454;2022-11-02T08:20:26;14.10;77.10
26821;DHT22;37186;51.394;5.454;2022-11-02T08:23:26;14.10;77.10
26821;DHT22;37186;51.394;5.454;2022-11-02T08:26:27;14.10;77.20
26821;DHT22;37186;51.394;5.454;2022-11-02T08:29:27;14.10;77.10
26821;DHT22;37186;51.394;5.454;2022-11-02T08:32:28;14.20;77.20
26821;DHT22;37186;51.394;5.454;2022-11-02T08:35:28;14.10;77.10
26821;DHT22;37186;51.394;5.454;2022-11-02T08:38:30;14.10;77.20
26821;DHT22;37186;51.394;5.454;2022-11-02T08:41:30;14.10;77.10
26821;DHT22;37186;51.394;5.454;2022-11-02T08:44:31;14.10;77.10
26821;DHT22;37186;51.394;5.454;2022-11-02T08:47:31;14.10;78.00
26821;DHT22;37186;51.394;5.454;2022-11-02T08:50:32;14.10;77.20
26821;DHT22;37186;51.394;5.454;2022-11-02T08:53:33;14.10;77.30
26821;DHT22;37186;51.394;5.454;2022-11-02T08:56:33;14.20;77.30
26821;DHT22;37186;51.394;5.454;2022-11-02T08:59:34;14.20;77.30
26821;DHT22;37186;51.394;5.454;2022-11-02T09:02:34;14.10;77.30
26821;DHT22;37186;51.394;5.454;2022-11-02T09:05:45;14.20;77.30
26821;DHT22;37186;51.394;5.454;2022-11-02T09:08:46;14.20;77.30
26821;DHT22;37186;51.394;5.454;2022-11-02T09:11:49;14.20;77.20
26821;DHT22;37186;51.394;5.454;2022-11-02T09:14:49;14.20;77.30
26821;DHT22;37186;51.394;5.454;2022-11-02T09:17:50;14.20;77.40
26821;DHT22;37186;51.394;5.454;2022-11-02T09:20:50;14.20;77.30
26821;DHT22;37186;51.394;5.454;2022-11-02T09:23:51;14.30;77.40
26821;DHT22;37186;51.394;5.454;2022-11-02T09:26:52;14.30;77.40
26821;DHT22;37186;51.394;5.454;2022-11-02T09:29:52;14.30;77.40
26821;DHT22;37186;51.394;5.454;2022-11-02T09:32:58;14.30;77.40
26821;DHT22;37186;51.394;5.454;2022-11-02T09:36:03;14.30;77.40
26821;DHT22;37186;51.394;5.454;2022-11-02T09:39:04;14.30;77.40
26821;DHT22;37186;51.394;5.454;2022-11-02T09:42:21;14.30;77.30
26821;DHT22;37186;51.394;5.454;2022-11-02T09:45:23;14.40;77.40
26821;DHT22;37186;51.394;5.454;2022-11-02T09:48:45;14.40;77.40
26821;DHT22;37186;51.394;5.454;2022-11-02T09:51:53;14.40;77.50
26821;DHT22;37186;51.394;5.454;2022-11-02T09:54:55;14.40;77.10
26821;DHT22;37186;51.394;5.454;2022-11-02T09:58:04;14.40;77.20
26821;DHT22;37186;51.394;5.454;2022-11-02T10:08:54;14.50;77.50
26821;DHT22;37186;51.394;5.454;2022-11-02T10:15:19;14.60;77.20
26821;DHT22;37186;51.394;5.454;2022-11-02T10:18:26;14.60;77.40
26821;DHT22;37186;51.394;5.454;2022-11-02T10:21:36;14.50;77.40
26821;DHT22;37186;51.394;5.454;2022-11-02T10:24:43;14.60;77.40
26821;DHT22;37186;51.394;5.454;2022-11-02T10:27:47;14.60;77.40
26821;DHT22;37186;51.394;5.454;2022-11-02T10:30:49;14.60;77.20
26821;DHT22;37186;51.394;5.454;2022-11-02T10:33:49;14.60;77.30
26821;DHT22;37186;51.394;5.454;2022-11-02T10:40:41;14.70;77.40
26821;DHT22;37186;51.394;5.454;2022-11-02T10:47:17;14.70;77.10
26821;DHT22;37186;51.394;5.454;2022-11-02T10:50:52;14.70;77.20
26821;DHT22;37186;51.394;5.454;2022-11-02T10:53:56;14.70;77.10
26821;DHT22;37186;51.394;5.454;2022-11-02T10:56:57;14.80;77.20
26821;DHT22;37186;51.394;5.454;2022-11-02T11:03:22;14.80;77.00
26821;DHT22;37186;51.394;5.454;2022-11-02T11:06:42;14.80;77.10
26821;DHT22;37186;51.394;5.454;2022-11-02T11:09:55;14.90;77.20
26821;DHT22;37186;51.394;5.454;2022-11-02T11:12:56;14.90;77.20
26821;DHT22;37186;51.394;5.454;2022-11-02T11:15:56;14.90;77.10
26821;DHT22;37186;51.394;5.454;2022-11-02T11:18:58;15.00;77.30
26821;DHT22;37186;51.394;5.454;2022-11-02T11:21:59;15.00;77.30
26821;DHT22;37186;51.394;5.454;2022-11-02T11:25:21;15.00;77.30
26821;DHT22;37186;51.394;5.454;2022-11-02T11:31:27;15.10;77.30
26821;DHT22;37186;51.394;5.454;2022-11-02T11:34:31;15.10;77.30
26821;DHT22;37186;51.394;5.454;2022-11-02T11:37:33;15.20;77.30
26821;DHT22;37186;51.394;5.454;2022-11-02T11:40:38;15.20;77.20
26821;DHT22;37186;51.394;5.454;2022-11-02T11:43:44;15.20;77.20
26821;DHT22;37186;51.394;5.454;2022-11-02T11:46:47;15.30;77.30
26821;DHT22;37186;51.394;5.454;2022-11-02T11:49:49;15.30;77.00
26821;DHT22;37186;51.394;5.454;2022-11-02T11:56:24;15.30;77.30
26821;DHT22;37186;51.394;5.454;2022-11-02T11:59:46;15.40;77.20
26821;DHT22;37186;51.394;5.454;2022-11-02T12:03:01;15.40;77.20
26821;DHT22;37186;51.394;5.454;2022-11-02T12:06:12;15.40;77.20
26821;DHT22;37186;51.394;5.454;2022-11-02T12:09:30;15.50;77.20
26821;DHT22;37186;51.394;5.454;2022-11-02T12:22:59;15.50;77.20
26821;DHT22;37186;51.394;5.454;2022-11-02T12:29:29;15.60;77.20
26821;DHT22;37186;51.394;5.454;2022-11-02T12:36:16;15.60;77.20
26821;DHT22;37186;51.394;5.454;2022-11-02T12:42:34;15.60;77.20
26821;DHT22;37186;51.394;5.454;2022-11-02T12:52:25;15.70;77.20
26821;DHT22;37186;51.394;5.454;2022-11-02T12:55:36;15.70;77.20
26821;DHT22;37186;51.394;5.454;2022-11-02T12:58:40;15.70;77.00
26821;DHT22;37186;51.394;5.454;2022-11-02T13:01:42;15.70;77.20
26821;DHT22;37186;51.394;5.454;2022-11-02T13:04:53;15.80;77.10
26821;DHT22;37186;51.394;5.454;2022-11-02T13:08:15;15.80;77.20
26821;DHT22;37186;51.394;5.454;2022-11-02T13:11:34;15.80;77.10
26821;DHT22;37186;51.394;5.454;2022-11-02T13:14:43;15.90;77.30
26821;DHT22;37186;51.394;5.454;2022-11-02T13:18:09;15.90;77.20
26821;DHT22;37186;51.394;5.454;2022-11-02T13:21:11;15.90;77.10
26821;DHT22;37186;51.394;5.454;2022-11-02T13:24:17;15.90;77.10
26821;DHT22;37186;51.394;5.454;2022-11-02T13:27:32;15.90;77.00
26821;DHT22;37186;51.394;5.454;2022-11-02T13:30:34;16.00;77.10
26821;DHT22;37186;51.394;5.454;2022-11-02T13:33:45;16.00;77.20
26821;DHT22;37186;51.394;5.454;2022-11-02T13:36:47;16.00;77.20
26821;DHT22;37186;51.394;5.454;2022-11-02T13:39:52;16.00;77.00
26821;DHT22;37186;51.394;5.454;2022-11-02T13:46:20;16.10;77.20
26821;DHT22;37186;51.394;5.454;2022-11-02T13:49:37;16.10;77.30
26821;DHT22;37186;51.394;5.454;2022-11-02T13:52:49;16.10;77.20
26821;DHT22;37186;51.394;5.454;2022-11-02T13:55:54;16.10;77.20
26821;DHT22;37186;51.394;5.454;2022-11-02T13:59:08;16.10;77.10
26821;DHT22;37186;51.394;5.454;2022-11-02T14:02:15;16.20;77.20
26821;DHT22;37186;51.394;5.454;2022-11-02T14:05:34;16.10;77.10
26821;DHT22;37186;51.394;5.454;2022-11-02T14:08:41;16.20;77.10
26821;DHT22;37186;51.394;5.454;2022-11-02T14:11:47;16.20;77.00
26821;DHT22;37186;51.394;5.454;2022-11-02T14:18:17;16.20;76.90
26821;DHT22;37186;51.394;5.454;2022-11-02T14:22:24;16.20;77.10
26821;DHT22;37186;51.394;5.454;2022-11-02T14:25:13;16.20;77.40
26821;DHT22;37186;51.394;5.454;2022-11-02T14:31:29;16.20;76.90
26821;DHT22;37186;51.394;5.454;2022-11-02T14:47:39;16.20;76.70
26821;DHT22;37186;51.394;5.454;2022-11-02T14:50:39;16.20;76.80
26821;DHT22;37186;51.394;5.454;2022-11-02T14:53:41;16.10;76.70
26821;DHT22;37186;51.394;5.454;2022-11-02T14:59:54;16.10;76.40
26821;DHT22;37186;51.394;5.454;2022-11-02T15:02:55;16.10;76.60
26821;DHT22;37186;51.394;5.454;2022-11-02T15:09:11;16.10;76.50
26821;DHT22;37186;51.394;5.454;2022-11-02T15:12:30;16.10;76.50
26821;DHT22;37186;51.394;5.454;2022-11-02T15:15:33;16.00;76.50
26821;DHT22;37186;51.394;5.454;2022-11-02T15:18:35;16.00;76.40
26821;DHT22;37186;51.394;5.454;2022-11-02T15:21:36;15.90;76.20
26821;DHT22;37186;51.394;5.454;2022-11-02T15:24:38;16.00;76.50
26821;DHT22;37186;51.394;5.454;2022-11-02T15:27:41;15.90;76.40
26821;DHT22;37186;51.394;5.454;2022-11-02T15:30:44;15.90;76.50
26821;DHT22;37186;51.394;5.454;2022-11-02T15:33:48;15.90;76.50
26821;DHT22;37186;51.394;5.454;2022-11-02T15:36:49;15.80;76.30
26821;DHT22;37186;51.394;5.454;2022-11-02T15:39:51;15.80;76.50
26821;DHT22;37186;51.394;5.454;2022-11-02T15:43:10;15.80;76.40
26821;DHT22;37186;51.394;5.454;2022-11-02T15:53:22;15.70;76.40
26821;DHT22;37186;51.394;5.454;2022-11-02T16:03:03;15.70;76.30
26821;DHT22;37186;51.394;5.454;2022-11-02T16:06:04;15.60;76.30
26821;DHT22;37186;51.394;5.454;2022-11-02T16:09:36;15.60;76.20
26821;DHT22;37186;51.394;5.454;2022-11-02T16:12:37;15.60;76.30
26821;DHT22;37186;51.394;5.454;2022-11-02T16:15:39;15.50;76.20
26821;DHT22;37186;51.394;5.454;2022-11-02T16:18:43;15.50;76.20
26821;DHT22;37186;51.394;5.454;2022-11-02T16:21:48;15.50;76.20
26821;DHT22;37186;51.394;5.454;2022-11-02T16:24:49;15.40;76.20
26821;DHT22;37186;51.394;5.454;2022-11-02T16:27:51;15.40;76.20
26821;DHT22;37186;51.394;5.454;2022-11-02T16:34:19;15.30;76.20
26821;DHT22;37186;51.394;5.454;2022-11-02T16:37:20;15.30;76.20
26821;DHT22;37186;51.394;5.454;2022-11-02T16:40:21;15.30;76.30
26821;DHT22;37186;51.394;5.454;2022-11-02T16:43:23;15.30;76.20
26821;DHT22;37186;51.394;5.454;2022-11-02T16:46:30;15.20;76.20
26821;DHT22;37186;51.394;5.454;2022-11-02T16:49:31;15.20;76.20
26821;DHT22;37186;51.394;5.454;2022-11-02T16:52:34;15.20;76.20
26821;DHT22;37186;51.394;5.454;2022-11-02T16:55:45;15.20;76.20
26821;DHT22;37186;51.394;5.454;2022-11-02T16:58:48;15.10;76.10
26821;DHT22;37186;51.394;5.454;2022-11-02T17:01:49;15.10;76.20
26821;DHT22;37186;51.394;5.454;2022-11-02T17:04:54;15.10;76.20
26821;DHT22;37186;51.394;5.454;2022-11-02T17:08:03;15.10;76.20
26821;DHT22;37186;51.394;5.454;2022-11-02T17:11:05;15.00;76.10
26821;DHT22;37186;51.394;5.454;2022-11-02T17:14:08;15.00;76.10
26821;DHT22;37186;51.394;5.454;2022-11-02T17:20:22;14.90;76.00
26821;DHT22;37186;51.394;5.454;2022-11-02T17:23:31;14.90;76.10
26821;DHT22;37186;51.394;5.454;2022-11-02T17:26:34;14.90;76.10
26821;DHT22;37186;51.394;5.454;2022-11-02T17:29:38;14.90;76.10
26821;DHT22;37186;51.394;5.454;2022-11-02T17:32:41;14.90;76.10
26821;DHT22;37186;51.394;5.454;2022-11-02T17:35:47;14.90;76.10
26821;DHT22;37186;51.394;5.454;2022-11-02T17:38:47;14.80;76.00
26821;DHT22;37186;51.394;5.454;2022-11-02T17:41:53;14.80;76.10
26821;DHT22;37186;51.394;5.454;2022-11-02T17:48:23;14.70;76.10
26821;DHT22;37186;51.394;5.454;2022-11-02T17:51:24;14.70;76.00
26821;DHT22;37186;51.394;5.454;2022-11-02T17:54:25;14.70;76.10
26821;DHT22;37186;51.394;5.454;2022-11-02T17:57:25;14.60;76.00
26821;DHT22;37186;51.394;5.454;2022-11-02T18:00:27;14.60;76.00
26821;DHT22;37186;51.394;5.454;2022-11-02T18:03:28;14.60;76.00
26821;DHT22;37186;51.394;5.454;2022-11-02T18:06:28;14.60;76.00
26821;DHT22;37186;51.394;5.454;2022-11-02T18:09:29;14.50;76.00
26821;DHT22;37186;51.394;5.454;2022-11-02T18:12:29;14.60;76.10
26821;DHT22;37186;51.394;5.454;2022-11-02T18:15:31;14.50;76.00
26821;DHT22;37186;51.394;5.454;2022-11-02T18:18:32;14.60;76.10
26821;DHT22;37186;51.394;5.454;2022-11-02T18:21:33;14.50;76.00
26821;DHT22;37186;51.394;5.454;2022-11-02T18:24:33;14.40;75.90
26821;DHT22;37186;51.394;5.454;2022-11-02T18:27:34;14.50;76.00
26821;DHT22;37186;51.394;5.454;2022-11-02T18:30:35;14.40;76.00
26821;DHT22;37186;51.394;5.454;2022-11-02T18:33:35;14.40;76.00
26821;DHT22;37186;51.394;5.454;2022-11-02T18:36:37;14.40;76.10
26821;DHT22;37186;51.394;5.454;2022-11-02T18:39:37;14.40;76.10
26821;DHT22;37186;51.394;5.454;2022-11-02T18:42:39;14.40;76.00
26821;DHT22;37186;51.394;5.454;2022-11-02T18:45:40;14.30;75.90
26821;DHT22;37186;51.394;5.454;2022-11-02T18:48:40;14.30;75.90
26821;DHT22;37186;51.394;5.454;2022-11-02T18:51:41;14.30;76.00
26821;DHT22;37186;51.394;5.454;2022-11-02T18:54:42;14.30;75.90
26821;DHT22;37186;51.394;5.454;2022-11-02T18:57:43;14.30;76.10
26821;DHT22;37186;51.394;5.454;2022-11-02T19:00:44;14.30;76.10
26821;DHT22;37186;51.394;5.454;2022-11-02T19:04:03;14.20;75.90
26821;DHT22;37186;51.394;5.454;2022-11-02T19:07:03;14.20;76.00
26821;DHT22;37186;51.394;5.454;2022-11-02T19:10:22;14.20;75.90
26821;DHT22;37186;51.394;5.454;2022-11-02T19:13:23;14.20;76.00
26821;DHT22;37186;51.394;5.454;2022-11-02T19:16:23;14.20;76.10
26821;DHT22;37186;51.394;5.454;2022-11-02T19:19:24;14.20;76.00
26821;DHT22;37186;51.394;5.454;2022-11-02T19:22:25;14.20;76.10
26821;DHT22;37186;51.394;5.454;2022-11-02T19:25:25;14.20;76.00
26821;DHT22;37186;51.394;5.454;2022-11-02T19:28:26;14.10;76.00
26821;DHT22;37186;51.394;5.454;2022-11-02T19:31:26;14.10;76.00
26821;DHT22;37186;51.394;5.454;2022-11-02T19:34:27;14.10;76.10
26821;DHT22;37186;51.394;5.454;2022-11-02T19:37:27;14.10;76.10
26821;DHT22;37186;51.394;5.454;2022-11-02T19:40:28;14.10;76.10
26821;DHT22;37186;51.394;5.454;2022-11-02T19:43:28;14.10;76.00
26821;DHT22;37186;51.394;5.454;2022-11-02T19:46:29;14.10;76.10
26821;DHT22;37186;51.394;5.454;2022-11-02T19:49:30;14.10;76.10
26821;DHT22;37186;51.394;5.454;2022-11-02T19:52:30;14.10;75.90
26821;DHT22;37186;51.394;5.454;2022-11-02T19:55:33;14.10;76.00
26821;DHT22;37186;51.394;5.454;2022-11-02T19:58:33;14.10;76.10
26821;DHT22;37186;51.394;5.454;2022-11-02T20:01:37;14.10;76.10
26821;DHT22;37186;51.394;5.454;2022-11-02T20:04:38;14.00;76.10
26821;DHT22;37186;51.394;5.454;2022-11-02T20:07:39;14.10;76.10
26821;DHT22;37186;51.394;5.454;2022-11-02T20:10:40;14.10;76.10
26821;DHT22;37186;51.394;5.454;2022-11-02T20:13:41;14.00;76.00
26821;DHT22;37186;51.394;5.454;2022-11-02T20:16:43;14.00;76.00
26821;DHT22;37186;51.394;5.454;2022-11-02T20:19:43;14.00;76.00
26821;DHT22;37186;51.394;5.454;2022-11-02T20:22:44;14.00;76.10
26821;DHT22;37186;51.394;5.454;2022-11-02T20:25:48;14.00;76.00
26821;DHT22;37186;51.394;5.454;2022-11-02T20:28:48;14.00;76.00
26821;DHT22;37186;51.394;5.454;2022-11-02T20:31:49;14.00;76.10
26821;DHT22;37186;51.394;5.454;2022-11-02T20:34:50;14.00;76.10
26821;DHT22;37186;51.394;5.454;2022-11-02T20:37:52;14.00;76.10
26821;DHT22;37186;51.394;5.454;2022-11-02T20:40:52;14.00;75.90
26821;DHT22;37186;51.394;5.454;2022-11-02T20:43:54;14.00;76.10
26821;DHT22;37186;51.394;5.454;2022-11-02T20:46:55;14.00;76.00
26821;DHT22;37186;51.394;5.454;2022-11-02T20:49:55;14.00;76.10
26821;DHT22;37186;51.394;5.454;2022-11-02T20:52:56;14.00;76.10
26821;DHT22;37186;51.394;5.454;2022-11-02T20:55:59;14.00;76.10
26821;DHT22;37186;51.394;5.454;2022-11-02T20:59:00;14.00;76.10
26821;DHT22;37186;51.394;5.454;2022-11-02T21:02:00;14.00;76.00
26821;DHT22;37186;51.394;5.454;2022-11-02T21:05:01;14.00;76.10
26821;DHT22;37186;51.394;5.454;2022-11-02T21:08:02;14.00;76.10
26821;DHT22;37186;51.394;5.454;2022-11-02T21:11:03;14.00;76.10
26821;DHT22;37186;51.394;5.454;2022-11-02T21:14:24;14.00;76.10
26821;DHT22;37186;51.394;5.454;2022-11-02T21:17:25;13.90;76.00
26821;DHT22;37186;51.394;5.454;2022-11-02T21:20:26;14.00;76.10
26821;DHT22;37186;51.394;5.454;2022-11-02T21:23:27;14.00;76.10